createdAt,value
2017-09-26T00:00:38.993Z,85.81
2017-09-26T00:03:07.336Z,86.17
2017-09-26T00:05:36.765Z,86.23
2017-09-26T00:08:05.087Z,86.31
2017-09-26T00:10:33.401Z,86.02
2017-09-26T00:13:02.510Z,86.30
2017-09-26T00:15:30.829Z,86.04
2017-09-26T00:17:59.170Z,85.77
2017-09-26T00:20:28.340Z,85.45
2017-09-26T00:22:57.246Z,85.97
2017-09-26T00:25:25.563Z,86.14
2017-09-26T00:27:53.887Z,86.63
2017-09-26T00:30:22.220Z,86.86
2017-09-26T00:32:51.307Z,86.57
2017-09-26T00:35:19.642Z,86.52
2017-09-26T00:37:47.971Z,86.39
2017-09-26T00:40:16.318Z,86.56
2017-09-26T00:42:45.421Z,86.39
2017-09-26T00:45:14.491Z,86.83
2017-09-26T00:47:42.799Z,86.86
2017-09-26T00:50:11.841Z,86.90
2017-09-26T00:52:40.155Z,87.06
2017-09-26T00:55:08.446Z,86.73
2017-09-26T00:57:36.763Z,87.05
2017-09-26T01:00:05.052Z,87.01
2017-09-26T01:02:33.346Z,86.75
2017-09-26T01:08:08.375Z,86.64
2017-09-26T01:10:36.692Z,86.92
2017-09-26T01:13:04.975Z,87.17
2017-09-26T01:15:33.289Z,87.43
2017-09-26T01:18:02.372Z,87.43
2017-09-26T01:20:31.765Z,87.32
2017-09-26T01:23:00.088Z,87.21
2017-09-26T01:25:28.412Z,87.03
2017-09-26T01:27:57.227Z,87.03
2017-09-26T01:30:26.731Z,86.81
2017-09-26T01:32:55.833Z,86.94
2017-09-26T01:35:24.923Z,87.23
2017-09-26T01:37:53.262Z,87.31
2017-09-26T01:40:21.584Z,87.49
2017-09-26T01:42:49.909Z,87.23
2017-09-26T01:45:18.254Z,86.90
2017-09-26T01:47:46.573Z,87.19
2017-09-26T01:50:15.685Z,87.32
2017-09-26T01:52:43.994Z,87.32
2017-09-26T01:55:13.130Z,87.19
2017-09-26T01:57:43.708Z,86.83
2017-09-26T02:00:12.583Z,87.60
2017-09-26T02:02:41.027Z,87.32
2017-09-26T02:05:09.361Z,87.33
2017-09-26T02:07:37.708Z,87.21
2017-09-26T02:10:06.049Z,87.22
2017-09-26T02:12:34.392Z,87.05
2017-09-26T02:15:02.820Z,87.55
2017-09-26T02:17:31.144Z,87.80
2017-09-26T02:19:59.562Z,87.94
2017-09-26T02:22:28.646Z,87.51
2017-09-26T02:24:57.756Z,87.24
2017-09-26T02:27:26.079Z,87.21
2017-09-26T02:29:54.432Z,87.07
2017-09-26T02:32:22.774Z,87.20
2017-09-26T02:34:51.109Z,87.06
2017-09-26T02:37:19.467Z,87.26
2017-09-26T02:39:47.787Z,87.35
2017-09-26T02:42:16.207Z,87.29
2017-09-26T02:44:45.296Z,87.58
2017-09-26T02:47:13.990Z,87.58
2017-09-26T02:49:42.315Z,87.13
2017-09-26T02:52:10.631Z,86.85
2017-09-26T02:54:39.727Z,87.18
2017-09-26T02:57:08.929Z,87.18
2017-09-26T02:59:38.032Z,87.69
2017-09-26T03:02:07.128Z,87.88
2017-09-26T03:04:36.308Z,88.13
2017-09-26T03:07:04.642Z,88.34
2017-09-26T03:09:32.989Z,88.59
2017-09-26T03:12:02.136Z,88.38
2017-09-26T03:14:30.451Z,88.30
2017-09-26T03:16:58.793Z,87.91
2017-09-26T03:19:27.131Z,87.89
2017-09-26T03:21:55.478Z,87.55
2017-09-26T03:24:24.572Z,87.52
2017-09-26T03:26:52.890Z,87.70
2017-09-26T03:29:21.253Z,87.67
2017-09-26T03:31:50.344Z,87.24
2017-09-26T03:34:19.461Z,87.08
2017-09-26T03:36:47.812Z,87.32
2017-09-26T03:39:16.148Z,87.17
2017-09-26T03:41:44.496Z,87.00
2017-09-26T03:44:12.813Z,87.04
2017-09-26T03:46:41.193Z,87.28
2017-09-26T03:49:09.509Z,87.45
2017-09-26T03:51:37.934Z,87.26
2017-09-26T03:54:06.262Z,87.15
2017-09-26T03:56:34.668Z,87.23
2017-09-26T03:59:03.763Z,87.62
2017-09-26T04:01:32.942Z,87.37
2017-09-26T04:04:01.362Z,87.31
2017-09-26T04:06:30.465Z,87.19
2017-09-26T04:08:58.806Z,87.16
2017-09-26T04:11:27.123Z,87.15
2017-09-26T04:13:55.510Z,87.57
2017-09-26T04:16:23.831Z,87.41
2017-09-26T04:18:52.221Z,87.66
2017-09-26T04:21:21.323Z,87.90
2017-09-26T04:23:49.644Z,87.80
2017-09-26T04:26:17.979Z,87.58
2017-09-26T04:28:47.077Z,87.70
2017-09-26T04:31:16.300Z,87.64
2017-09-26T04:33:44.628Z,87.78
2017-09-26T04:36:12.977Z,87.54
2017-09-26T04:38:41.316Z,87.61
2017-09-26T04:41:09.794Z,87.57
2017-09-26T04:43:38.148Z,88.20
2017-09-26T04:46:07.282Z,87.83
2017-09-26T04:48:35.627Z,88.16
2017-09-26T04:51:03.939Z,87.97
2017-09-26T04:53:33.039Z,87.94
2017-09-26T04:56:01.417Z,87.94
2017-09-26T04:58:29.787Z,87.85
2017-09-26T05:00:58.139Z,87.68
2017-09-26T05:03:26.631Z,88.03
2017-09-26T05:05:55.249Z,88.07
2017-09-26T05:08:24.416Z,88.13
2017-09-26T05:10:52.790Z,88.03
2017-09-26T05:13:21.206Z,87.84
2017-09-26T05:15:50.303Z,87.68
2017-09-26T05:18:18.654Z,88.04
2017-09-26T05:20:46.977Z,87.71
2017-09-26T05:23:15.299Z,87.75
2017-09-26T05:25:43.635Z,87.73
2017-09-26T05:28:12.088Z,88.53
2017-09-26T05:30:41.218Z,88.44
2017-09-26T05:33:09.557Z,88.23
2017-09-26T05:35:38.264Z,88.07
2017-09-26T05:38:07.348Z,88.44
2017-09-26T05:40:36.450Z,88.36
2017-09-26T05:43:05.558Z,88.44
2017-09-26T05:45:34.755Z,88.56
2017-09-26T05:48:14.962Z,88.50
2017-09-26T05:50:45.568Z,88.38
2017-09-26T05:53:14.035Z,88.22
2017-09-26T05:55:42.367Z,88.16
2017-09-26T05:58:16.352Z,88.27
2017-09-26T06:00:46.915Z,88.39
2017-09-26T06:03:15.261Z,88.31
2017-09-26T06:05:44.541Z,88.46
2017-09-26T06:08:12.874Z,88.21
2017-09-26T06:10:41.602Z,87.95
2017-09-26T06:13:10.695Z,87.92
2017-09-26T06:15:41.940Z,88.22
2017-09-26T06:18:13.238Z,87.95
2017-09-26T06:20:44.921Z,88.27
2017-09-26T06:23:13.313Z,88.13
2017-09-26T06:25:42.402Z,88.04
2017-09-26T06:28:10.815Z,88.40
2017-09-26T06:30:39.935Z,88.28
2017-09-26T06:33:08.389Z,88.18
2017-09-26T06:35:37.507Z,88.20
2017-09-26T06:38:05.851Z,88.33
2017-09-26T06:40:34.959Z,88.42
2017-09-26T06:43:04.044Z,88.13
2017-09-26T06:45:32.416Z,88.09
2017-09-26T06:48:00.748Z,87.92
2017-09-26T06:50:34.118Z,87.82
2017-09-26T06:53:02.561Z,88.07
2017-09-26T06:55:30.929Z,88.35
2017-09-26T06:57:59.247Z,88.27
2017-09-26T07:00:28.342Z,87.86
2017-09-26T07:02:57.443Z,87.45
2017-09-26T07:05:26.534Z,87.13
2017-09-26T07:07:55.652Z,87.22
2017-09-26T07:10:23.991Z,87.26
2017-09-26T07:12:52.591Z,87.13
2017-09-26T07:15:20.902Z,86.95
2017-09-26T07:17:49.225Z,86.84
2017-09-26T07:20:17.580Z,87.07
2017-09-26T07:22:45.914Z,86.83
2017-09-26T07:25:15.029Z,86.74
2017-09-26T07:27:43.357Z,86.54
2017-09-26T07:30:11.700Z,86.99
2017-09-26T07:32:40.015Z,87.15
2017-09-26T07:35:08.397Z,87.23
2017-09-26T07:37:36.738Z,87.54
2017-09-26T07:40:05.356Z,87.55
2017-09-26T07:42:33.673Z,87.50
2017-09-26T07:45:02.771Z,87.35
2017-09-26T07:47:32.120Z,87.25
2017-09-26T07:50:00.463Z,87.05
2017-09-26T07:52:28.849Z,87.35
2017-09-26T07:54:57.175Z,87.21
2017-09-26T07:57:25.520Z,87.04
2017-09-26T07:59:53.859Z,87.15
2017-09-26T08:02:22.510Z,86.97
2017-09-26T08:04:53.264Z,86.89
2017-09-26T08:07:23.293Z,86.66
2017-09-26T08:09:55.458Z,86.39
2017-09-26T08:12:24.366Z,86.00
2017-09-26T08:14:54.395Z,85.28
2017-09-26T08:17:23.214Z,84.83
2017-09-26T08:19:52.187Z,84.65
2017-09-26T08:22:21.244Z,84.06
2017-09-26T08:24:50.170Z,83.45
2017-09-26T08:27:20.067Z,83.05
2017-09-26T08:29:49.173Z,82.79
2017-09-26T08:32:18.310Z,82.38
2017-09-26T08:34:46.639Z,82.61
2017-09-26T08:37:15.790Z,82.52
2017-09-26T08:39:44.144Z,82.08
2017-09-26T08:42:12.471Z,81.19
2017-09-26T08:44:40.818Z,80.80
2017-09-26T08:47:09.196Z,80.83
2017-09-26T08:49:37.586Z,80.55
2017-09-26T08:52:05.950Z,80.23
2017-09-26T08:54:34.341Z,80.05
2017-09-26T08:57:02.670Z,79.71
2017-09-26T08:59:31.994Z,79.35
2017-09-26T09:02:02.211Z,79.08
2017-09-26T09:04:31.311Z,79.25
2017-09-26T09:07:00.407Z,78.57
2017-09-26T09:09:29.782Z,78.71
2017-09-26T09:11:58.115Z,77.74
2017-09-26T09:14:26.449Z,78.38
2017-09-26T09:16:54.809Z,77.79
2017-09-26T09:19:23.135Z,77.02
2017-09-26T09:21:51.486Z,76.73
2017-09-26T09:24:19.816Z,75.94
2017-09-26T09:26:48.169Z,75.79
2017-09-26T09:29:17.259Z,75.49
2017-09-26T09:31:46.736Z,75.72
2017-09-26T09:34:15.079Z,75.67
2017-09-26T09:36:43.416Z,75.47
2017-09-26T09:39:12.548Z,75.27
2017-09-26T09:41:40.855Z,75.41
2017-09-26T09:44:09.249Z,75.48
2017-09-26T09:46:37.590Z,75.16
2017-09-26T09:49:05.956Z,74.96
2017-09-26T09:51:34.293Z,75.25
2017-09-26T09:54:02.916Z,75.11
2017-09-26T09:56:31.238Z,74.62
2017-09-26T09:58:59.588Z,74.72
2017-09-26T10:01:27.941Z,74.76
2017-09-26T10:03:57.137Z,74.35
2017-09-26T10:06:26.251Z,73.92
2017-09-26T10:08:54.571Z,73.16
2017-09-26T10:11:22.924Z,73.24
2017-09-26T10:13:51.243Z,73.30
2017-09-26T10:16:20.162Z,73.43
2017-09-26T10:18:48.504Z,73.26
2017-09-26T10:21:16.839Z,73.24
2017-09-26T10:23:45.193Z,72.92
2017-09-26T10:26:14.289Z,72.74
2017-09-26T10:28:43.392Z,72.46
2017-09-26T10:31:11.751Z,72.22
2017-09-26T10:33:40.100Z,73.78
2017-09-26T10:36:08.432Z,72.25
2017-09-26T10:38:36.785Z,71.64
2017-09-26T10:41:05.141Z,71.80
2017-09-26T10:43:33.464Z,71.33
2017-09-26T10:46:01.839Z,71.44
2017-09-26T10:48:30.957Z,71.53
2017-09-26T10:50:59.296Z,71.01
2017-09-26T10:53:27.613Z,70.43
2017-09-26T10:55:57.643Z,70.26
2017-09-26T10:58:25.991Z,70.49
2017-09-26T11:00:55.106Z,70.70
2017-09-26T11:03:24.223Z,71.08
2017-09-26T11:05:52.545Z,71.14
2017-09-26T11:08:23.062Z,69.54
2017-09-26T11:10:51.519Z,69.83
2017-09-26T11:13:19.851Z,69.70
2017-09-26T11:15:48.265Z,70.42
2017-09-26T11:18:16.690Z,69.28
2017-09-26T11:20:45.044Z,68.58
2017-09-26T11:23:13.422Z,69.09
2017-09-26T11:25:42.204Z,68.02
2017-09-26T11:28:10.582Z,67.60
2017-09-26T11:30:40.084Z,66.21
2017-09-26T11:33:08.432Z,66.22
2017-09-26T11:35:37.530Z,66.68
2017-09-26T11:38:07.058Z,66.75
2017-09-26T11:40:36.150Z,65.51
2017-09-26T11:43:04.487Z,66.10
2017-09-26T11:45:32.841Z,68.17
2017-09-26T11:48:01.593Z,68.32
2017-09-26T11:50:29.951Z,68.55
2017-09-26T11:52:58.297Z,68.85
2017-09-26T11:55:26.663Z,68.17
2017-09-26T11:57:54.985Z,67.31
2017-09-26T12:00:23.328Z,67.48
2017-09-26T12:02:51.675Z,66.83
2017-09-26T12:05:20.560Z,67.28
2017-09-26T12:07:49.646Z,65.90
2017-09-26T12:10:19.060Z,65.75
2017-09-26T12:12:53.441Z,65.88
2017-09-26T12:15:21.778Z,65.08
2017-09-26T12:17:50.112Z,65.34
2017-09-26T12:20:18.450Z,65.33
2017-09-26T12:22:47.722Z,66.69
2017-09-26T12:25:16.812Z,66.51
2017-09-26T12:27:45.477Z,65.92
2017-09-26T12:30:13.824Z,64.80
2017-09-26T12:32:42.143Z,66.18
2017-09-26T12:35:10.484Z,66.13
2017-09-26T12:37:38.939Z,65.47
2017-09-26T12:40:11.967Z,63.68
2017-09-26T12:42:40.336Z,63.05
2017-09-26T12:45:08.685Z,62.83
2017-09-26T12:47:37.064Z,62.06
2017-09-26T12:50:05.419Z,62.18
2017-09-26T12:52:34.528Z,62.90
2017-09-26T12:55:02.858Z,63.39
2017-09-26T12:57:31.220Z,62.02
2017-09-26T12:59:59.539Z,61.80
2017-09-26T13:02:27.890Z,61.30
2017-09-26T13:04:56.226Z,62.73
2017-09-26T13:07:25.046Z,62.95
2017-09-26T13:09:53.578Z,60.88
2017-09-26T13:12:22.164Z,58.83
2017-09-26T13:14:50.985Z,57.84
2017-09-26T13:17:19.479Z,54.95
2017-09-26T13:19:47.866Z,56.97
2017-09-26T13:22:16.302Z,60.26
2017-09-26T13:24:45.406Z,60.07
2017-09-26T13:27:13.888Z,60.46
2017-09-26T13:29:43.020Z,62.75
2017-09-26T13:32:11.388Z,62.96
2017-09-26T13:34:39.737Z,63.09
2017-09-26T13:37:08.080Z,61.38
2017-09-26T13:39:36.419Z,62.03
2017-09-26T13:42:04.757Z,61.12
2017-09-26T13:44:33.102Z,59.69
2017-09-26T13:47:01.450Z,59.45
2017-09-26T13:49:30.119Z,59.74
2017-09-26T13:51:58.463Z,59.34
2017-09-26T13:54:27.590Z,60.99
2017-09-26T13:56:56.679Z,58.41
2017-09-26T13:59:25.004Z,58.67
2017-09-26T14:01:53.335Z,59.90
2017-09-26T14:04:22.035Z,59.79
2017-09-26T14:06:50.394Z,61.86
2017-09-26T14:09:18.856Z,58.71
2017-09-26T14:11:47.313Z,58.35
2017-09-26T14:14:15.818Z,59.92
2017-09-26T14:16:44.249Z,59.58
2017-09-26T14:19:12.716Z,56.00
2017-09-26T14:21:41.046Z,55.33
2017-09-26T14:24:09.443Z,56.14
2017-09-26T14:26:37.888Z,55.85
2017-09-26T14:29:07.071Z,56.06
2017-09-26T14:31:36.318Z,56.54
2017-09-26T14:34:04.672Z,58.42
2017-09-26T14:36:33.011Z,58.72
2017-09-26T14:39:01.318Z,59.42
2017-09-26T14:41:30.666Z,58.43
2017-09-26T14:43:58.980Z,58.83
2017-09-26T14:46:27.332Z,59.36
2017-09-26T14:48:55.693Z,60.81
2017-09-26T14:51:24.148Z,57.71
2017-09-26T14:53:53.370Z,59.38
2017-09-26T14:56:21.755Z,61.12
2017-09-26T14:58:51.458Z,62.30
2017-09-26T15:01:19.769Z,60.61
2017-09-26T15:03:48.107Z,59.38
2017-09-26T15:06:16.457Z,58.26
2017-09-26T15:08:45.557Z,57.00
2017-09-26T15:11:14.678Z,56.95
2017-09-26T15:13:43.010Z,55.91
2017-09-26T15:16:11.381Z,55.70
2017-09-26T15:18:42.120Z,56.83
2017-09-26T15:21:10.484Z,55.61
2017-09-26T15:23:39.289Z,54.59
2017-09-26T15:26:07.630Z,53.74
2017-09-26T15:28:36.016Z,53.38
2017-09-26T15:31:04.354Z,50.88
2017-09-26T15:33:33.788Z,51.21
2017-09-26T15:36:02.115Z,51.10
2017-09-26T15:38:30.463Z,51.89
2017-09-26T15:40:58.808Z,52.15
2017-09-26T15:43:27.904Z,51.58
2017-09-26T15:45:57.011Z,51.51
2017-09-26T15:48:26.110Z,51.96
2017-09-26T15:50:54.455Z,53.65
2017-09-26T15:53:22.808Z,54.64
2017-09-26T15:55:51.150Z,54.77
2017-09-26T15:58:19.522Z,54.37
2017-09-26T16:00:48.612Z,54.94
2017-09-26T16:03:17.745Z,56.04
2017-09-26T16:05:46.080Z,58.74
2017-09-26T16:08:15.431Z,59.51
2017-09-26T16:10:43.795Z,61.05
2017-09-26T16:13:12.128Z,61.32
2017-09-26T16:15:40.490Z,62.60
2017-09-26T16:18:08.835Z,63.49
2017-09-26T16:20:37.168Z,64.27
2017-09-26T16:23:05.498Z,65.34
2017-09-26T16:25:34.092Z,65.65
2017-09-26T16:28:02.435Z,66.48
2017-09-26T16:30:31.545Z,67.06
2017-09-26T16:32:59.903Z,67.92
2017-09-26T16:35:30.929Z,68.52
2017-09-26T16:37:59.281Z,69.60
2017-09-26T16:40:35.697Z,70.57
2017-09-26T16:43:05.075Z,70.67
2017-09-26T16:45:33.422Z,71.40
2017-09-26T16:48:01.764Z,71.72
2017-09-26T16:50:30.883Z,71.67
2017-09-26T16:52:59.212Z,72.03
2017-09-26T16:55:27.567Z,72.57
2017-09-26T16:57:55.912Z,73.61
2017-09-26T17:00:24.584Z,74.20
2017-09-26T17:02:53.668Z,73.93
2017-09-26T17:05:22.791Z,74.58
2017-09-26T17:07:51.156Z,75.21
2017-09-26T17:10:20.281Z,75.78
2017-09-26T17:12:48.623Z,75.87
2017-09-26T17:15:17.716Z,76.26
2017-09-26T17:17:46.319Z,76.71
2017-09-26T17:20:14.659Z,76.26
2017-09-26T17:22:42.989Z,75.87
2017-09-26T17:25:11.341Z,76.72
2017-09-26T17:27:40.435Z,77.27
2017-09-26T17:30:08.790Z,77.04
2017-09-26T17:32:37.127Z,76.87
2017-09-26T17:35:05.498Z,77.07
2017-09-26T17:37:33.849Z,77.19
2017-09-26T17:40:02.220Z,77.24
2017-09-26T17:42:30.570Z,77.37
2017-09-26T17:44:58.925Z,78.05
2017-09-26T17:47:27.289Z,78.68
2017-09-26T17:49:56.390Z,78.56
2017-09-26T17:52:24.764Z,78.91
2017-09-26T17:54:53.870Z,79.56
2017-09-26T17:57:22.233Z,79.49
2017-09-26T17:59:51.365Z,80.44
2017-09-26T18:02:19.747Z,80.64
2017-09-26T18:04:48.105Z,79.60
2017-09-26T18:07:17.408Z,79.96
2017-09-26T18:09:46.568Z,79.49
2017-09-26T18:12:14.911Z,80.72
2017-09-26T18:14:43.527Z,80.43
2017-09-26T18:17:11.873Z,80.42
2017-09-26T18:19:40.240Z,80.78
2017-09-26T18:22:08.581Z,80.77
2017-09-26T18:24:36.930Z,80.40
2017-09-26T18:27:05.302Z,80.98
2017-09-26T18:29:33.647Z,81.22
2017-09-26T18:32:02.002Z,82.45
2017-09-26T18:34:31.105Z,83.25
2017-09-26T18:37:00.804Z,81.80
2017-09-26T18:39:29.155Z,81.36
2017-09-26T18:41:57.552Z,82.54
2017-09-26T18:44:25.896Z,82.34
2017-09-26T18:46:54.233Z,83.30
2017-09-26T18:49:26.777Z,82.64
2017-09-26T18:51:55.131Z,82.67
2017-09-26T18:54:23.495Z,82.77
2017-09-26T18:56:51.837Z,82.51
2017-09-26T18:59:20.172Z,83.51
2017-09-26T19:01:48.553Z,82.91
2017-09-26T19:04:16.880Z,83.03
2017-09-26T19:06:45.544Z,83.17
2017-09-26T19:09:13.884Z,83.35
2017-09-26T19:11:42.211Z,82.63
2017-09-26T19:14:10.589Z,84.09
2017-09-26T19:16:38.942Z,83.85
2017-09-26T19:19:07.287Z,84.68
2017-09-26T19:21:36.380Z,84.66
2017-09-26T19:24:05.055Z,84.29
2017-09-26T19:26:33.420Z,83.84
2017-09-26T19:29:01.800Z,83.92
2017-09-26T19:31:30.167Z,83.98
2017-09-26T19:33:58.518Z,83.76
2017-09-26T19:36:26.907Z,84.32
2017-09-26T19:38:56.160Z,84.04
2017-09-26T19:41:24.548Z,85.13
2017-09-26T19:43:53.748Z,84.47
2017-09-26T19:46:22.838Z,84.40
2017-09-26T19:48:52.067Z,83.76
2017-09-26T19:51:20.414Z,84.25
2017-09-26T19:53:49.535Z,84.59
2017-09-26T19:56:17.870Z,84.27
2017-09-26T19:58:46.580Z,85.18
2017-09-26T20:01:14.921Z,84.16
2017-09-26T20:03:43.247Z,84.65
2017-09-26T20:06:12.569Z,84.45
2017-09-26T20:08:41.843Z,84.84
2017-09-26T20:11:11.795Z,84.22
2017-09-26T20:13:40.134Z,84.80
2017-09-26T20:16:12.296Z,84.95
2017-09-26T20:18:40.651Z,85.69
2017-09-26T20:21:09.004Z,86.34
2017-09-26T20:23:37.366Z,85.31
2017-09-26T20:26:05.709Z,85.12
2017-09-26T20:28:34.055Z,85.29
2017-09-26T20:31:02.396Z,85.86
2017-09-26T20:33:31.236Z,85.12
2017-09-26T20:35:59.752Z,84.87
2017-09-26T20:38:28.930Z,85.41
2017-09-26T20:40:57.281Z,84.62
2017-09-26T20:43:25.607Z,84.45
2017-09-26T20:45:54.733Z,84.60
2017-09-26T20:48:23.062Z,85.76
2017-09-26T20:50:51.423Z,85.25
2017-09-26T20:53:19.783Z,84.70
2017-09-26T20:55:48.107Z,85.00
2017-09-26T20:58:16.558Z,85.44
2017-09-26T21:00:44.899Z,85.87
2017-09-26T21:03:14.272Z,85.33
2017-09-26T21:05:42.632Z,85.65
2017-09-26T21:08:10.964Z,84.89
2017-09-26T21:10:39.320Z,85.32
2017-09-26T21:13:07.687Z,85.86
2017-09-26T21:15:36.032Z,86.59
2017-09-26T21:18:05.137Z,85.76
2017-09-26T21:20:33.800Z,85.34
2017-09-26T21:23:02.135Z,85.57
2017-09-26T21:25:31.228Z,85.04
2017-09-26T21:27:59.574Z,85.54
2017-09-26T21:30:27.901Z,85.81
2017-09-26T21:32:57.038Z,85.54
2017-09-26T21:35:25.358Z,84.93
2017-09-26T21:37:53.725Z,84.78
2017-09-26T21:40:22.044Z,85.73
2017-09-26T21:42:51.167Z,86.01
2017-09-26T21:45:19.501Z,85.89
2017-09-26T21:47:47.820Z,86.16
2017-09-26T21:50:16.147Z,86.09
2017-09-26T21:52:44.565Z,86.00
2017-09-26T21:55:13.923Z,85.88
2017-09-26T21:57:42.247Z,85.71
2017-09-26T22:00:11.888Z,85.39
2017-09-26T22:02:40.229Z,86.07
2017-09-26T22:05:09.325Z,86.54
2017-09-26T22:07:37.668Z,86.14
2017-09-26T22:10:06.004Z,85.32
2017-09-26T22:12:35.311Z,86.51
2017-09-26T22:15:03.651Z,85.69
2017-09-26T22:17:32.005Z,85.70
2017-09-26T22:20:00.361Z,86.45
2017-09-26T22:22:28.681Z,86.20
2017-09-26T22:24:57.024Z,86.10
2017-09-26T22:27:25.369Z,86.09
2017-09-26T22:29:53.703Z,86.01
2017-09-26T22:32:22.055Z,86.55
2017-09-26T22:34:50.388Z,85.86
2017-09-26T22:37:19.500Z,85.50
2017-09-26T22:39:47.827Z,85.77
2017-09-26T22:42:16.185Z,85.70
2017-09-26T22:44:44.534Z,85.95
2017-09-26T22:47:13.676Z,85.89
2017-09-26T22:49:42.000Z,85.33
2017-09-26T22:52:11.098Z,84.92
2017-09-26T22:54:39.449Z,85.66
2017-09-26T22:57:07.766Z,86.27
2017-09-26T22:59:36.896Z,86.40
2017-09-26T23:02:05.222Z,85.63
2017-09-26T23:04:33.813Z,85.70
2017-09-26T23:07:02.140Z,85.82
2017-09-26T23:09:30.488Z,85.87
2017-09-26T23:11:59.590Z,85.92
2017-09-26T23:14:28.426Z,86.37
2017-09-26T23:16:56.797Z,86.47
2017-09-26T23:19:25.896Z,86.63
2017-09-26T23:21:54.241Z,85.97
2017-09-26T23:24:22.581Z,85.92
2017-09-26T23:26:50.988Z,85.66
2017-09-26T23:29:20.119Z,85.92
2017-09-26T23:31:48.444Z,85.94
2017-09-26T23:34:16.870Z,85.67
2017-09-26T23:36:45.199Z,86.60
2017-09-26T23:39:13.799Z,86.85
2017-09-26T23:41:42.896Z,86.06
2017-09-26T23:44:11.215Z,85.58
2017-09-26T23:46:39.568Z,85.87
2017-09-26T23:49:08.669Z,86.95
2017-09-26T23:51:37.937Z,87.22
2017-09-26T23:54:06.277Z,86.70
2017-09-26T23:56:34.617Z,87.15
2017-09-26T23:59:03.702Z,86.77
